Hadensville, Kentucky
Current Conditions -  °F | °C
As of 6:08 AM on Thursday 18 Dec 2014 (Local Time) from KCKV Reporting Station
Overcast Overcast  
Wind Chill: 32°   Ceiling: 6500
Heat Index: 32°   Visibility: 7mi
Dew Point: 29°   Wind: 3mph
Humidity: 88%   Direction: 120°ESE
Pressure: 30.25"   Gusts: NA
Location:  36.705°N, 87.1786°W
Report Text: KCKV 181208Z AUTO 12003KT 7SM OVC065 00/M02 A3025 RMK AO2 FZRAE02 P0000 I1000 T00001017 $
Loading
Personal Weather Stations






























Interactive Weather Map New forecast layout! Learn more

10-Day Weather Forecast

Advertisements
Track Severe Weather on mobile